sensor_id;sensor_type;location;lat;lon;timestamp;P1;durP1;ratioP1;P2;durP2;ratioP2
56161;SDS011;42045;52.986;6.014;2022-12-29T00:01:32;9.52;;;8.70;;
56161;SDS011;42045;52.986;6.014;2022-12-29T00:03:59;8.43;;;7.72;;
56161;SDS011;42045;52.986;6.014;2022-12-29T00:06:25;8.70;;;8.00;;
56161;SDS011;42045;52.986;6.014;2022-12-29T00:08:51;9.30;;;8.38;;
56161;SDS011;42045;52.986;6.014;2022-12-29T00:11:21;8.75;;;7.95;;
56161;SDS011;42045;52.986;6.014;2022-12-29T00:13:51;9.07;;;8.27;;
56161;SDS011;42045;52.986;6.014;2022-12-29T00:16:37;9.70;;;8.80;;
56161;SDS011;42045;52.986;6.014;2022-12-29T00:19:05;9.80;;;9.00;;
56161;SDS011;42045;52.986;6.014;2022-12-29T00:21:31;8.75;;;7.90;;
56161;SDS011;42045;52.986;6.014;2022-12-29T00:24:19;9.40;;;8.55;;
56161;SDS011;42045;52.986;6.014;2022-12-29T00:29:45;10.20;;;7.65;;
56161;SDS011;42045;52.986;6.014;2022-12-29T00:32:30;9.65;;;8.82;;
56161;SDS011;42045;52.986;6.014;2022-12-29T00:35:19;8.27;;;7.53;;
56161;SDS011;42045;52.986;6.014;2022-12-29T00:37:51;8.38;;;7.53;;
56161;SDS011;42045;52.986;6.014;2022-12-29T00:40:36;12.38;;;8.13;;
56161;SDS011;42045;52.986;6.014;2022-12-29T00:43:20;10.70;;;7.85;;
56161;SDS011;42045;52.986;6.014;2022-12-29T00:46:05;8.45;;;7.15;;
56161;SDS011;42045;52.986;6.014;2022-12-29T00:48:30;7.80;;;7.10;;
56161;SDS011;42045;52.986;6.014;2022-12-29T00:51:15;7.25;;;6.55;;
56161;SDS011;42045;52.986;6.014;2022-12-29T00:53:40;7.55;;;6.80;;
56161;SDS011;42045;52.986;6.014;2022-12-29T00:56:06;7.45;;;6.75;;
56161;SDS011;42045;52.986;6.014;2022-12-29T00:58:32;7.20;;;6.50;;
56161;SDS011;42045;52.986;6.014;2022-12-29T01:01:04;9.65;;;7.07;;
56161;SDS011;42045;52.986;6.014;2022-12-29T01:03:32;7.70;;;7.00;;
56161;SDS011;42045;52.986;6.014;2022-12-29T01:06:01;7.25;;;6.55;;
56161;SDS011;42045;52.986;6.014;2022-12-29T01:08:28;8.13;;;7.38;;
56161;SDS011;42045;52.986;6.014;2022-12-29T01:10:57;8.43;;;6.97;;
56161;SDS011;42045;52.986;6.014;2022-12-29T01:13:28;7.55;;;6.82;;
56161;SDS011;42045;52.986;6.014;2022-12-29T01:15:53;9.27;;;7.35;;
56161;SDS011;42045;52.986;6.014;2022-12-29T01:18:19;8.65;;;6.95;;
56161;SDS011;42045;52.986;6.014;2022-12-29T01:20:46;7.45;;;6.80;;
56161;SDS011;42045;52.986;6.014;2022-12-29T01:23:11;8.85;;;7.63;;
56161;SDS011;42045;52.986;6.014;2022-12-29T01:25:37;8.75;;;7.95;;
56161;SDS011;42045;52.986;6.014;2022-12-29T01:28:03;8.50;;;7.60;;
56161;SDS011;42045;52.986;6.014;2022-12-29T01:30:29;7.53;;;6.82;;
56161;SDS011;42045;52.986;6.014;2022-12-29T01:32:54;9.77;;;8.23;;
56161;SDS011;42045;52.986;6.014;2022-12-29T01:35:20;9.32;;;7.80;;
56161;SDS011;42045;52.986;6.014;2022-12-29T01:37:46;8.52;;;7.72;;
56161;SDS011;42045;52.986;6.014;2022-12-29T01:40:11;8.45;;;7.60;;
56161;SDS011;42045;52.986;6.014;2022-12-29T01:42:37;7.68;;;6.97;;
56161;SDS011;42045;52.986;6.014;2022-12-29T01:45:08;7.45;;;6.53;;
56161;SDS011;42045;52.986;6.014;2022-12-29T01:47:37;7.40;;;6.68;;
56161;SDS011;42045;52.986;6.014;2022-12-29T01:50:08;6.28;;;5.70;;
56161;SDS011;42045;52.986;6.014;2022-12-29T01:52:37;7.88;;;6.07;;
56161;SDS011;42045;52.986;6.014;2022-12-29T01:55:06;6.57;;;5.40;;
56161;SDS011;42045;52.986;6.014;2022-12-29T01:57:36;5.55;;;4.97;;
56161;SDS011;42045;52.986;6.014;2022-12-29T02:00:06;5.20;;;4.70;;
56161;SDS011;42045;52.986;6.014;2022-12-29T02:02:34;7.03;;;4.50;;
56161;SDS011;42045;52.986;6.014;2022-12-29T02:05:10;4.80;;;4.32;;
56161;SDS011;42045;52.986;6.014;2022-12-29T02:07:41;6.55;;;4.35;;
56161;SDS011;42045;52.986;6.014;2022-12-29T02:10:07;6.47;;;4.20;;
56161;SDS011;42045;52.986;6.014;2022-12-29T02:12:33;6.22;;;4.00;;
56161;SDS011;42045;52.986;6.014;2022-12-29T02:15:00;6.45;;;4.05;;
56161;SDS011;42045;52.986;6.014;2022-12-29T02:31:22;4.97;;;2.97;;
56161;SDS011;42045;52.986;6.014;2022-12-29T02:34:10;6.18;;;3.03;;
56161;SDS011;42045;52.986;6.014;2022-12-29T02:37:02;4.97;;;3.08;;
56161;SDS011;42045;52.986;6.014;2022-12-29T02:42:21;2.97;;;2.40;;
56161;SDS011;42045;52.986;6.014;2022-12-29T02:45:05;2.97;;;2.30;;
56161;SDS011;42045;52.986;6.014;2022-12-29T02:47:51;3.97;;;2.60;;
56161;SDS011;42045;52.986;6.014;2022-12-29T02:50:36;3.70;;;2.33;;
56161;SDS011;42045;52.986;6.014;2022-12-29T02:53:13;3.85;;;2.45;;
56161;SDS011;42045;52.986;6.014;2022-12-29T02:55:51;5.25;;;2.45;;
56161;SDS011;42045;52.986;6.014;2022-12-29T02:58:21;3.22;;;2.60;;
56161;SDS011;42045;52.986;6.014;2022-12-29T03:06:35;4.15;;;1.67;;
56161;SDS011;42045;52.986;6.014;2022-12-29T03:09:06;4.88;;;1.90;;
56161;SDS011;42045;52.986;6.014;2022-12-29T03:14:47;4.97;;;1.90;;
56161;SDS011;42045;52.986;6.014;2022-12-29T03:20:21;7.25;;;2.00;;
56161;SDS011;42045;52.986;6.014;2022-12-29T03:22:58;3.65;;;1.70;;
56161;SDS011;42045;52.986;6.014;2022-12-29T03:25:30;4.80;;;2.00;;
56161;SDS011;42045;52.986;6.014;2022-12-29T03:28:00;4.53;;;2.10;;
56161;SDS011;42045;52.986;6.014;2022-12-29T03:30:29;7.03;;;1.92;;
56161;SDS011;42045;52.986;6.014;2022-12-29T03:33:07;4.75;;;2.20;;
56161;SDS011;42045;52.986;6.014;2022-12-29T03:35:37;5.60;;;2.08;;
56161;SDS011;42045;52.986;6.014;2022-12-29T03:38:23;6.88;;;2.70;;
56161;SDS011;42045;52.986;6.014;2022-12-29T03:41:08;5.50;;;2.20;;
56161;SDS011;42045;52.986;6.014;2022-12-29T03:43:36;7.32;;;2.05;;
56161;SDS011;42045;52.986;6.014;2022-12-29T03:46:02;4.05;;;2.05;;
56161;SDS011;42045;52.986;6.014;2022-12-29T03:48:28;3.70;;;2.00;;
56161;SDS011;42045;52.986;6.014;2022-12-29T03:50:54;7.28;;;1.90;;
56161;SDS011;42045;52.986;6.014;2022-12-29T03:53:19;5.40;;;2.22;;
56161;SDS011;42045;52.986;6.014;2022-12-29T03:55:46;6.85;;;1.90;;
56161;SDS011;42045;52.986;6.014;2022-12-29T03:58:12;5.25;;;1.52;;
56161;SDS011;42045;52.986;6.014;2022-12-29T04:00:37;6.15;;;1.85;;
56161;SDS011;42045;52.986;6.014;2022-12-29T04:03:03;7.60;;;1.77;;
56161;SDS011;42045;52.986;6.014;2022-12-29T04:05:29;5.90;;;1.77;;
56161;SDS011;42045;52.986;6.014;2022-12-29T04:07:56;8.20;;;2.10;;
56161;SDS011;42045;52.986;6.014;2022-12-29T04:10:21;6.75;;;1.60;;
56161;SDS011;42045;52.986;6.014;2022-12-29T04:12:47;12.65;;;2.40;;
56161;SDS011;42045;52.986;6.014;2022-12-29T04:15:13;6.05;;;1.48;;
56161;SDS011;42045;52.986;6.014;2022-12-29T04:17:38;5.63;;;1.38;;
56161;SDS011;42045;52.986;6.014;2022-12-29T04:20:04;7.93;;;2.22;;
56161;SDS011;42045;52.986;6.014;2022-12-29T04:22:49;8.10;;;2.25;;
56161;SDS011;42045;52.986;6.014;2022-12-29T04:25:22;5.68;;;1.60;;
56161;SDS011;42045;52.986;6.014;2022-12-29T04:27:47;6.00;;;1.60;;
56161;SDS011;42045;52.986;6.014;2022-12-29T04:30:13;5.25;;;1.70;;
56161;SDS011;42045;52.986;6.014;2022-12-29T04:32:38;8.35;;;1.42;;
56161;SDS011;42045;52.986;6.014;2022-12-29T04:35:04;9.60;;;1.63;;
56161;SDS011;42045;52.986;6.014;2022-12-29T04:37:30;12.85;;;1.90;;
56161;SDS011;42045;52.986;6.014;2022-12-29T04:39:56;8.25;;;1.85;;
56161;SDS011;42045;52.986;6.014;2022-12-29T04:42:21;8.57;;;2.30;;
56161;SDS011;42045;52.986;6.014;2022-12-29T04:44:47;7.60;;;1.73;;
56161;SDS011;42045;52.986;6.014;2022-12-29T04:47:13;8.43;;;2.17;;
56161;SDS011;42045;52.986;6.014;2022-12-29T04:49:38;7.13;;;2.03;;
56161;SDS011;42045;52.986;6.014;2022-12-29T04:52:04;9.52;;;2.65;;
56161;SDS011;42045;52.986;6.014;2022-12-29T04:54:30;15.27;;;3.25;;
56161;SDS011;42045;52.986;6.014;2022-12-29T04:56:56;9.60;;;2.30;;
56161;SDS011;42045;52.986;6.014;2022-12-29T04:59:21;11.98;;;2.28;;
56161;SDS011;42045;52.986;6.014;2022-12-29T05:01:47;11.80;;;2.53;;
56161;SDS011;42045;52.986;6.014;2022-12-29T05:04:13;12.30;;;2.90;;
56161;SDS011;42045;52.986;6.014;2022-12-29T05:06:38;10.70;;;2.28;;
56161;SDS011;42045;52.986;6.014;2022-12-29T05:09:04;10.52;;;2.40;;
56161;SDS011;42045;52.986;6.014;2022-12-29T05:11:30;17.15;;;3.50;;
56161;SDS011;42045;52.986;6.014;2022-12-29T05:13:56;13.90;;;2.70;;
56161;SDS011;42045;52.986;6.014;2022-12-29T05:16:22;15.40;;;2.65;;
56161;SDS011;42045;52.986;6.014;2022-12-29T05:18:47;13.70;;;2.85;;
56161;SDS011;42045;52.986;6.014;2022-12-29T05:21:13;11.55;;;3.05;;
56161;SDS011;42045;52.986;6.014;2022-12-29T05:23:38;16.92;;;3.80;;
56161;SDS011;42045;52.986;6.014;2022-12-29T05:26:04;13.88;;;3.00;;
56161;SDS011;42045;52.986;6.014;2022-12-29T05:28:30;9.98;;;2.78;;
56161;SDS011;42045;52.986;6.014;2022-12-29T05:30:55;19.15;;;3.35;;
56161;SDS011;42045;52.986;6.014;2022-12-29T05:33:21;11.10;;;3.10;;
56161;SDS011;42045;52.986;6.014;2022-12-29T05:35:47;11.75;;;3.17;;
56161;SDS011;42045;52.986;6.014;2022-12-29T05:38:12;12.65;;;2.95;;
56161;SDS011;42045;52.986;6.014;2022-12-29T05:40:38;13.65;;;2.70;;
56161;SDS011;42045;52.986;6.014;2022-12-29T05:43:04;10.90;;;2.65;;
56161;SDS011;42045;52.986;6.014;2022-12-29T05:45:29;9.60;;;2.92;;
56161;SDS011;42045;52.986;6.014;2022-12-29T05:47:55;10.38;;;2.47;;
56161;SDS011;42045;52.986;6.014;2022-12-29T05:50:20;10.30;;;2.67;;
56161;SDS011;42045;52.986;6.014;2022-12-29T05:52:46;8.95;;;1.75;;
56161;SDS011;42045;52.986;6.014;2022-12-29T05:55:12;12.57;;;2.97;;
56161;SDS011;42045;52.986;6.014;2022-12-29T05:57:38;16.50;;;3.15;;
56161;SDS011;42045;52.986;6.014;2022-12-29T06:00:05;16.38;;;3.22;;
56161;SDS011;42045;52.986;6.014;2022-12-29T06:02:31;14.40;;;3.28;;
56161;SDS011;42045;52.986;6.014;2022-12-29T06:04:57;15.27;;;3.20;;
56161;SDS011;42045;52.986;6.014;2022-12-29T06:07:23;14.10;;;2.70;;
56161;SDS011;42045;52.986;6.014;2022-12-29T06:09:48;11.95;;;2.83;;
56161;SDS011;42045;52.986;6.014;2022-12-29T06:12:14;13.05;;;2.80;;
56161;SDS011;42045;52.986;6.014;2022-12-29T06:14:40;15.05;;;3.00;;
56161;SDS011;42045;52.986;6.014;2022-12-29T06:17:05;15.15;;;3.33;;
56161;SDS011;42045;52.986;6.014;2022-12-29T06:19:32;14.65;;;2.90;;
56161;SDS011;42045;52.986;6.014;2022-12-29T06:21:57;17.20;;;3.38;;
56161;SDS011;42045;52.986;6.014;2022-12-29T06:24:23;13.27;;;3.45;;
56161;SDS011;42045;52.986;6.014;2022-12-29T06:26:49;20.95;;;4.03;;
56161;SDS011;42045;52.986;6.014;2022-12-29T06:29:14;15.40;;;3.70;;
56161;SDS011;42045;52.986;6.014;2022-12-29T06:31:42;17.35;;;3.00;;
56161;SDS011;42045;52.986;6.014;2022-12-29T06:34:10;16.50;;;3.47;;
56161;SDS011;42045;52.986;6.014;2022-12-29T06:36:37;15.43;;;3.17;;
56161;SDS011;42045;52.986;6.014;2022-12-29T06:39:02;19.33;;;3.72;;
56161;SDS011;42045;52.986;6.014;2022-12-29T06:41:28;15.88;;;3.15;;
56161;SDS011;42045;52.986;6.014;2022-12-29T06:43:54;17.85;;;3.75;;
56161;SDS011;42045;52.986;6.014;2022-12-29T06:46:19;12.15;;;3.00;;
56161;SDS011;42045;52.986;6.014;2022-12-29T06:48:45;15.32;;;4.32;;
56161;SDS011;42045;52.986;6.014;2022-12-29T06:51:11;16.92;;;3.75;;
56161;SDS011;42045;52.986;6.014;2022-12-29T06:53:36;11.13;;;3.45;;
56161;SDS011;42045;52.986;6.014;2022-12-29T06:56:02;15.88;;;4.65;;
56161;SDS011;42045;52.986;6.014;2022-12-29T06:58:28;13.07;;;3.60;;
56161;SDS011;42045;52.986;6.014;2022-12-29T07:00:53;16.38;;;3.67;;
56161;SDS011;42045;52.986;6.014;2022-12-29T07:03:19;16.85;;;3.65;;
56161;SDS011;42045;52.986;6.014;2022-12-29T07:05:45;15.23;;;3.20;;
56161;SDS011;42045;52.986;6.014;2022-12-29T07:08:10;16.13;;;4.38;;
56161;SDS011;42045;52.986;6.014;2022-12-29T07:10:36;14.02;;;4.03;;
56161;SDS011;42045;52.986;6.014;2022-12-29T07:13:02;14.80;;;3.50;;
56161;SDS011;42045;52.986;6.014;2022-12-29T07:15:28;14.20;;;4.20;;
56161;SDS011;42045;52.986;6.014;2022-12-29T07:17:53;12.48;;;3.05;;
56161;SDS011;42045;52.986;6.014;2022-12-29T07:20:19;15.52;;;3.60;;
56161;SDS011;42045;52.986;6.014;2022-12-29T07:22:45;17.92;;;4.20;;
56161;SDS011;42045;52.986;6.014;2022-12-29T07:25:12;13.07;;;3.38;;
56161;SDS011;42045;52.986;6.014;2022-12-29T07:27:38;16.52;;;3.50;;
56161;SDS011;42045;52.986;6.014;2022-12-29T07:30:03;14.57;;;3.85;;
56161;SDS011;42045;52.986;6.014;2022-12-29T07:32:32;10.30;;;3.00;;
56161;SDS011;42045;52.986;6.014;2022-12-29T07:34:58;16.35;;;3.58;;
56161;SDS011;42045;52.986;6.014;2022-12-29T07:37:24;16.33;;;3.42;;
56161;SDS011;42045;52.986;6.014;2022-12-29T07:39:50;14.18;;;3.38;;
56161;SDS011;42045;52.986;6.014;2022-12-29T07:42:15;20.45;;;4.07;;
56161;SDS011;42045;52.986;6.014;2022-12-29T07:44:41;19.48;;;4.18;;
56161;SDS011;42045;52.986;6.014;2022-12-29T07:47:07;12.02;;;3.28;;
56161;SDS011;42045;52.986;6.014;2022-12-29T07:49:32;16.50;;;3.35;;
56161;SDS011;42045;52.986;6.014;2022-12-29T07:51:58;18.05;;;4.10;;
56161;SDS011;42045;52.986;6.014;2022-12-29T07:54:24;20.73;;;5.53;;
56161;SDS011;42045;52.986;6.014;2022-12-29T07:56:49;18.70;;;4.75;;
56161;SDS011;42045;52.986;6.014;2022-12-29T07:59:15;19.77;;;4.05;;
56161;SDS011;42045;52.986;6.014;2022-12-29T08:01:41;22.08;;;4.10;;
56161;SDS011;42045;52.986;6.014;2022-12-29T08:04:06;23.45;;;4.15;;
56161;SDS011;42045;52.986;6.014;2022-12-29T08:06:32;17.45;;;3.85;;
56161;SDS011;42045;52.986;6.014;2022-12-29T08:08:58;14.68;;;3.45;;
56161;SDS011;42045;52.986;6.014;2022-12-29T08:11:25;24.20;;;4.07;;
56161;SDS011;42045;52.986;6.014;2022-12-29T08:13:51;15.75;;;3.80;;
56161;SDS011;42045;52.986;6.014;2022-12-29T08:16:17;16.73;;;4.15;;
56161;SDS011;42045;52.986;6.014;2022-12-29T08:18:43;19.40;;;4.75;;
56161;SDS011;42045;52.986;6.014;2022-12-29T08:21:09;21.52;;;4.32;;
56161;SDS011;42045;52.986;6.014;2022-12-29T08:23:35;19.55;;;3.78;;
56161;SDS011;42045;52.986;6.014;2022-12-29T08:26:01;28.02;;;4.88;;
56161;SDS011;42045;52.986;6.014;2022-12-29T08:28:29;22.55;;;4.78;;
56161;SDS011;42045;52.986;6.014;2022-12-29T08:30:59;24.63;;;4.53;;
56161;SDS011;42045;52.986;6.014;2022-12-29T08:33:26;17.83;;;4.85;;
56161;SDS011;42045;52.986;6.014;2022-12-29T08:35:57;25.27;;;5.68;;
56161;SDS011;42045;52.986;6.014;2022-12-29T08:38:24;24.30;;;5.95;;
56161;SDS011;42045;52.986;6.014;2022-12-29T08:40:51;23.35;;;5.05;;
56161;SDS011;42045;52.986;6.014;2022-12-29T08:43:17;26.70;;;5.53;;
56161;SDS011;42045;52.986;6.014;2022-12-29T08:45:42;20.98;;;4.90;;
56161;SDS011;42045;52.986;6.014;2022-12-29T08:48:08;19.83;;;4.07;;
56161;SDS011;42045;52.986;6.014;2022-12-29T08:50:34;19.13;;;5.00;;
56161;SDS011;42045;52.986;6.014;2022-12-29T08:52:59;26.67;;;5.03;;
56161;SDS011;42045;52.986;6.014;2022-12-29T08:55:25;32.95;;;6.00;;
56161;SDS011;42045;52.986;6.014;2022-12-29T08:57:51;25.15;;;5.20;;
56161;SDS011;42045;52.986;6.014;2022-12-29T09:00:17;22.73;;;4.35;;
56161;SDS011;42045;52.986;6.014;2022-12-29T09:02:43;24.48;;;4.88;;
56161;SDS011;42045;52.986;6.014;2022-12-29T09:05:09;23.85;;;5.07;;
56161;SDS011;42045;52.986;6.014;2022-12-29T09:07:35;27.67;;;5.53;;
56161;SDS011;42045;52.986;6.014;2022-12-29T09:10:00;17.38;;;3.75;;
56161;SDS011;42045;52.986;6.014;2022-12-29T09:12:26;15.18;;;3.42;;
56161;SDS011;42045;52.986;6.014;2022-12-29T09:14:52;19.17;;;5.65;;
56161;SDS011;42045;52.986;6.014;2022-12-29T09:17:18;15.82;;;4.18;;
56161;SDS011;42045;52.986;6.014;2022-12-29T09:20:02;19.10;;;4.10;;
56161;SDS011;42045;52.986;6.014;2022-12-29T09:22:29;16.77;;;4.43;;
56161;SDS011;42045;52.986;6.014;2022-12-29T09:24:54;18.45;;;4.90;;
56161;SDS011;42045;52.986;6.014;2022-12-29T09:27:20;23.95;;;4.47;;
56161;SDS011;42045;52.986;6.014;2022-12-29T09:29:46;10.60;;;3.55;;
56161;SDS011;42045;52.986;6.014;2022-12-29T09:32:11;19.63;;;3.85;;
56161;SDS011;42045;52.986;6.014;2022-12-29T09:34:37;18.75;;;3.58;;
56161;SDS011;42045;52.986;6.014;2022-12-29T09:37:03;19.80;;;4.60;;
56161;SDS011;42045;52.986;6.014;2022-12-29T09:39:28;15.38;;;3.40;;
56161;SDS011;42045;52.986;6.014;2022-12-29T09:42:00;18.15;;;3.67;;
56161;SDS011;42045;52.986;6.014;2022-12-29T09:46:55;22.42;;;4.53;;
56161;SDS011;42045;52.986;6.014;2022-12-29T09:52:04;20.70;;;4.47;;
56161;SDS011;42045;52.986;6.014;2022-12-29T10:00:12;22.05;;;3.90;;
56161;SDS011;42045;52.986;6.014;2022-12-29T10:11:58;22.52;;;4.43;;
56161;SDS011;42045;52.986;6.014;2022-12-29T10:14:45;18.35;;;3.40;;
56161;SDS011;42045;52.986;6.014;2022-12-29T10:25:38;19.27;;;4.25;;
56161;SDS011;42045;52.986;6.014;2022-12-29T10:30:46;17.73;;;3.60;;
56161;SDS011;42045;52.986;6.014;2022-12-29T10:33:15;17.88;;;3.67;;
56161;SDS011;42045;52.986;6.014;2022-12-29T10:35:51;20.00;;;4.03;;
56161;SDS011;42045;52.986;6.014;2022-12-29T10:40:53;20.35;;;4.28;;
56161;SDS011;42045;52.986;6.014;2022-12-29T10:43:31;20.63;;;4.75;;
56161;SDS011;42045;52.986;6.014;2022-12-29T10:46:04;22.35;;;4.47;;
56161;SDS011;42045;52.986;6.014;2022-12-29T10:48:34;22.80;;;4.45;;
56161;SDS011;42045;52.986;6.014;2022-12-29T10:51:09;22.48;;;3.92;;
56161;SDS011;42045;52.986;6.014;2022-12-29T10:53:47;15.38;;;4.78;;
56161;SDS011;42045;52.986;6.014;2022-12-29T10:58:55;31.17;;;7.63;;
56161;SDS011;42045;52.986;6.014;2022-12-29T11:01:25;26.95;;;6.30;;
56161;SDS011;42045;52.986;6.014;2022-12-29T11:04:14;22.63;;;5.72;;
56161;SDS011;42045;52.986;6.014;2022-12-29T11:06:51;28.33;;;6.53;;
56161;SDS011;42045;52.986;6.014;2022-12-29T11:09:36;23.08;;;5.45;;
56161;SDS011;42045;52.986;6.014;2022-12-29T11:12:19;19.80;;;5.38;;
56161;SDS011;42045;52.986;6.014;2022-12-29T11:15:07;25.13;;;6.10;;
56161;SDS011;42045;52.986;6.014;2022-12-29T11:17:57;31.63;;;8.33;;
56161;SDS011;42045;52.986;6.014;2022-12-29T11:23:03;29.10;;;7.22;;
56161;SDS011;42045;52.986;6.014;2022-12-29T11:25:45;35.78;;;11.15;;
56161;SDS011;42045;52.986;6.014;2022-12-29T11:28:15;42.72;;;8.15;;
56161;SDS011;42045;52.986;6.014;2022-12-29T11:30:41;33.85;;;7.45;;
56161;SDS011;42045;52.986;6.014;2022-12-29T11:33:08;34.60;;;8.05;;
56161;SDS011;42045;52.986;6.014;2022-12-29T11:35:36;33.28;;;7.10;;
56161;SDS011;42045;52.986;6.014;2022-12-29T11:38:06;32.67;;;6.45;;
56161;SDS011;42045;52.986;6.014;2022-12-29T11:40:46;37.45;;;6.72;;
56161;SDS011;42045;52.986;6.014;2022-12-29T11:43:23;27.83;;;7.43;;
56161;SDS011;42045;52.986;6.014;2022-12-29T11:45:58;34.70;;;6.95;;
56161;SDS011;42045;52.986;6.014;2022-12-29T11:48:24;36.70;;;7.70;;
56161;SDS011;42045;52.986;6.014;2022-12-29T11:50:54;39.15;;;8.23;;
56161;SDS011;42045;52.986;6.014;2022-12-29T11:53:25;32.78;;;6.75;;
56161;SDS011;42045;52.986;6.014;2022-12-29T11:56:00;25.40;;;5.85;;
56161;SDS011;42045;52.986;6.014;2022-12-29T11:58:36;32.15;;;6.82;;
56161;SDS011;42045;52.986;6.014;2022-12-29T12:06:21;19.90;;;5.35;;
56161;SDS011;42045;52.986;6.014;2022-12-29T12:11:44;21.83;;;4.57;;
56161;SDS011;42045;52.986;6.014;2022-12-29T12:16:40;26.48;;;4.72;;
56161;SDS011;42045;52.986;6.014;2022-12-29T12:19:13;21.00;;;4.57;;
56161;SDS011;42045;52.986;6.014;2022-12-29T12:21:50;19.23;;;4.97;;
56161;SDS011;42045;52.986;6.014;2022-12-29T12:24:26;25.67;;;5.07;;
56161;SDS011;42045;52.986;6.014;2022-12-29T12:35:39;23.35;;;4.75;;
56161;SDS011;42045;52.986;6.014;2022-12-29T12:41:09;17.25;;;3.67;;
56161;SDS011;42045;52.986;6.014;2022-12-29T12:54:35;16.60;;;3.72;;
56161;SDS011;42045;52.986;6.014;2022-12-29T13:00:25;17.13;;;5.13;;
56161;SDS011;42045;52.986;6.014;2022-12-29T13:19:30;22.40;;;4.45;;
56161;SDS011;42045;52.986;6.014;2022-12-29T13:22:08;11.77;;;3.35;;
56161;SDS011;42045;52.986;6.014;2022-12-29T13:30:10;18.85;;;4.82;;
56161;SDS011;42045;52.986;6.014;2022-12-29T13:38:17;13.27;;;3.42;;
56161;SDS011;42045;52.986;6.014;2022-12-29T13:40:50;16.08;;;3.10;;
56161;SDS011;42045;52.986;6.014;2022-12-29T13:43:49;16.23;;;3.15;;
56161;SDS011;42045;52.986;6.014;2022-12-29T13:46:18;16.63;;;3.38;;
56161;SDS011;42045;52.986;6.014;2022-12-29T13:48:53;13.15;;;3.10;;
56161;SDS011;42045;52.986;6.014;2022-12-29T13:51:23;16.30;;;5.15;;
56161;SDS011;42045;52.986;6.014;2022-12-29T13:56:40;18.23;;;3.70;;
56161;SDS011;42045;52.986;6.014;2022-12-29T14:07:45;21.25;;;3.55;;
56161;SDS011;42045;52.986;6.014;2022-12-29T14:13:14;18.02;;;3.45;;
56161;SDS011;42045;52.986;6.014;2022-12-29T14:15:51;23.92;;;5.47;;
56161;SDS011;42045;52.986;6.014;2022-12-29T14:18:25;18.73;;;4.75;;
56161;SDS011;42045;52.986;6.014;2022-12-29T14:26:10;17.00;;;3.22;;
56161;SDS011;42045;52.986;6.014;2022-12-29T14:36:37;17.65;;;4.05;;
56161;SDS011;42045;52.986;6.014;2022-12-29T14:42:05;23.77;;;4.03;;
56161;SDS011;42045;52.986;6.014;2022-12-29T14:44:31;14.73;;;3.25;;
56161;SDS011;42045;52.986;6.014;2022-12-29T14:46:59;15.98;;;3.80;;
56161;SDS011;42045;52.986;6.014;2022-12-29T14:49:31;18.60;;;3.55;;
56161;SDS011;42045;52.986;6.014;2022-12-29T14:52:06;17.83;;;3.95;;
56161;SDS011;42045;52.986;6.014;2022-12-29T14:54:44;12.75;;;3.13;;
56161;SDS011;42045;52.986;6.014;2022-12-29T14:57:25;18.45;;;3.20;;
56161;SDS011;42045;52.986;6.014;2022-12-29T15:00:16;17.90;;;3.85;;
56161;SDS011;42045;52.986;6.014;2022-12-29T15:03:07;18.70;;;4.18;;
56161;SDS011;42045;52.986;6.014;2022-12-29T15:05:46;20.10;;;4.45;;
56161;SDS011;42045;52.986;6.014;2022-12-29T15:08:38;14.48;;;3.38;;
56161;SDS011;42045;52.986;6.014;2022-12-29T15:11:13;21.58;;;4.82;;
56161;SDS011;42045;52.986;6.014;2022-12-29T15:16:25;14.25;;;4.13;;
56161;SDS011;42045;52.986;6.014;2022-12-29T15:18:51;17.55;;;3.72;;
56161;SDS011;42045;52.986;6.014;2022-12-29T15:21:17;25.08;;;5.20;;
56161;SDS011;42045;52.986;6.014;2022-12-29T15:23:50;25.25;;;11.70;;
56161;SDS011;42045;52.986;6.014;2022-12-29T15:26:16;28.00;;;8.20;;
56161;SDS011;42045;52.986;6.014;2022-12-29T15:28:47;25.33;;;11.32;;
56161;SDS011;42045;52.986;6.014;2022-12-29T15:31:16;24.85;;;9.50;;
56161;SDS011;42045;52.986;6.014;2022-12-29T15:38:51;18.15;;;2.78;;
56161;SDS011;42045;52.986;6.014;2022-12-29T15:43:58;16.23;;;4.07;;
56161;SDS011;42045;52.986;6.014;2022-12-29T15:46:44;17.90;;;3.40;;
56161;SDS011;42045;52.986;6.014;2022-12-29T15:49:11;14.20;;;3.13;;
56161;SDS011;42045;52.986;6.014;2022-12-29T15:51:40;17.38;;;3.78;;
56161;SDS011;42045;52.986;6.014;2022-12-29T15:54:06;15.00;;;4.97;;
56161;SDS011;42045;52.986;6.014;2022-12-29T15:56:40;18.48;;;3.90;;
56161;SDS011;42045;52.986;6.014;2022-12-29T15:59:18;18.20;;;5.78;;
56161;SDS011;42045;52.986;6.014;2022-12-29T16:02:10;26.90;;;12.85;;
56161;SDS011;42045;52.986;6.014;2022-12-29T16:04:35;29.08;;;7.25;;
56161;SDS011;42045;52.986;6.014;2022-12-29T16:07:03;14.20;;;7.78;;
56161;SDS011;42045;52.986;6.014;2022-12-29T16:12:16;24.60;;;17.23;;
56161;SDS011;42045;52.986;6.014;2022-12-29T16:14:47;13.93;;;5.45;;
56161;SDS011;42045;52.986;6.014;2022-12-29T16:17:16;17.77;;;7.18;;
56161;SDS011;42045;52.986;6.014;2022-12-29T16:19:49;14.35;;;7.38;;
56161;SDS011;42045;52.986;6.014;2022-12-29T16:22:19;24.13;;;5.82;;
56161;SDS011;42045;52.986;6.014;2022-12-29T16:24:47;18.08;;;5.93;;
56161;SDS011;42045;52.986;6.014;2022-12-29T16:27:22;24.88;;;10.05;;
56161;SDS011;42045;52.986;6.014;2022-12-29T16:29:56;17.88;;;4.03;;
56161;SDS011;42045;52.986;6.014;2022-12-29T16:32:26;22.33;;;4.75;;
56161;SDS011;42045;52.986;6.014;2022-12-29T16:35:02;25.23;;;4.28;;
56161;SDS011;42045;52.986;6.014;2022-12-29T16:37:35;19.75;;;4.68;;
56161;SDS011;42045;52.986;6.014;2022-12-29T16:47:47;14.23;;;5.28;;
56161;SDS011;42045;52.986;6.014;2022-12-29T16:50:20;21.50;;;8.18;;
56161;SDS011;42045;52.986;6.014;2022-12-29T16:52:50;16.80;;;4.97;;
56161;SDS011;42045;52.986;6.014;2022-12-29T16:55:16;17.42;;;4.55;;
56161;SDS011;42045;52.986;6.014;2022-12-29T16:57:44;16.30;;;5.40;;
56161;SDS011;42045;52.986;6.014;2022-12-29T17:00:17;25.33;;;5.13;;
56161;SDS011;42045;52.986;6.014;2022-12-29T17:03:01;21.42;;;7.75;;
56161;SDS011;42045;52.986;6.014;2022-12-29T17:05:28;22.50;;;7.35;;
56161;SDS011;42045;52.986;6.014;2022-12-29T17:07:54;16.45;;;4.38;;
56161;SDS011;42045;52.986;6.014;2022-12-29T17:10:25;24.45;;;9.18;;
56161;SDS011;42045;52.986;6.014;2022-12-29T17:13:11;25.00;;;5.43;;
56161;SDS011;42045;52.986;6.014;2022-12-29T17:15:37;24.05;;;4.53;;
56161;SDS011;42045;52.986;6.014;2022-12-29T17:18:03;22.08;;;5.05;;
56161;SDS011;42045;52.986;6.014;2022-12-29T17:20:29;27.50;;;8.55;;
56161;SDS011;42045;52.986;6.014;2022-12-29T17:22:56;19.98;;;4.28;;
56161;SDS011;42045;52.986;6.014;2022-12-29T17:25:25;23.95;;;6.18;;
56161;SDS011;42045;52.986;6.014;2022-12-29T17:28:42;24.88;;;5.88;;
56161;SDS011;42045;52.986;6.014;2022-12-29T17:30:53;23.88;;;5.10;;
56161;SDS011;42045;52.986;6.014;2022-12-29T17:33:22;23.80;;;6.00;;
56161;SDS011;42045;52.986;6.014;2022-12-29T17:35:48;27.92;;;7.15;;
56161;SDS011;42045;52.986;6.014;2022-12-29T17:40:42;20.75;;;4.03;;
56161;SDS011;42045;52.986;6.014;2022-12-29T17:43:07;21.92;;;4.75;;
56161;SDS011;42045;52.986;6.014;2022-12-29T17:45:37;24.95;;;5.30;;
56161;SDS011;42045;52.986;6.014;2022-12-29T17:48:04;21.58;;;7.00;;
56161;SDS011;42045;52.986;6.014;2022-12-29T17:50:39;25.10;;;7.22;;
56161;SDS011;42045;52.986;6.014;2022-12-29T17:53:09;22.95;;;5.97;;
56161;SDS011;42045;52.986;6.014;2022-12-29T17:55:38;31.50;;;8.48;;
56161;SDS011;42045;52.986;6.014;2022-12-29T17:58:20;26.15;;;6.95;;
56161;SDS011;42045;52.986;6.014;2022-12-29T18:00:52;29.85;;;10.68;;
56161;SDS011;42045;52.986;6.014;2022-12-29T18:03:26;34.10;;;7.40;;